createdAt,value
2018-07-07T02:34:49.480Z,3.30
2018-07-07T08:35:23.988Z,1.90
2018-07-07T09:27:21.074Z,1.75
2018-07-07T09:29:49.894Z,1.50
2018-07-07T09:32:24.332Z,1.30
2018-07-07T09:37:22.045Z,1.50
2018-07-07T09:39:51.272Z,2.20
2018-07-07T09:42:19.980Z,1.23
2018-07-07T09:44:49.948Z,1.50
2018-07-07T09:47:19.526Z,1.50
2018-07-07T09:49:50.792Z,1.03
2018-07-07T09:52:19.669Z,1.30
2018-07-07T09:54:48.594Z,1.45
2018-07-07T09:57:17.840Z,1.40
2018-07-07T10:02:14.649Z,1.60
2018-07-07T10:04:44.501Z,1.17
2018-07-07T10:07:14.564Z,1.55
2018-07-07T10:09:44.310Z,1.00
2018-07-07T10:12:12.991Z,1.10
2018-07-07T10:14:42.220Z,1.10
2018-07-07T10:17:11.378Z,1.15
2018-07-07T10:19:42.868Z,1.27
2018-07-07T10:22:12.189Z,1.20
2018-07-07T10:24:42.245Z,1.73
2018-07-07T10:27:11.456Z,1.00
2018-07-07T10:29:40.649Z,1.20
2018-07-07T10:32:10.837Z,1.40
2018-07-07T10:34:39.768Z,1.30
2018-07-07T10:37:09.406Z,1.20
2018-07-07T10:39:38.629Z,1.00
2018-07-07T10:42:08.026Z,1.17
2018-07-07T10:44:36.910Z,0.87
2018-07-07T10:47:06.475Z,1.23
2018-07-07T10:49:35.610Z,1.00
2018-07-07T10:52:04.870Z,1.30
2018-07-07T10:54:34.019Z,1.00
2018-07-07T10:57:03.143Z,1.03
2018-07-07T10:59:32.307Z,1.30
2018-07-07T11:02:01.541Z,1.07
2018-07-07T11:04:30.880Z,0.97
2018-07-07T11:07:04.899Z,1.00
2018-07-07T11:09:33.952Z,1.00
2018-07-07T11:12:04.599Z,1.07
2018-07-07T11:14:33.993Z,1.13
2018-07-07T11:17:03.130Z,1.20
2018-07-07T11:19:32.265Z,1.03
2018-07-07T11:22:01.536Z,1.00
2018-07-07T11:24:44.939Z,1.20
2018-07-07T11:27:26.780Z,2.40
2018-07-07T11:29:57.593Z,1.00
2018-07-07T11:32:26.407Z,1.00
2018-07-07T11:34:56.578Z,1.20
2018-07-07T11:37:30.007Z,1.30
2018-07-07T11:40:00.369Z,1.07
2018-07-07T11:42:30.825Z,1.03
2018-07-07T11:45:17.963Z,1.37
2018-07-07T11:47:47.930Z,1.10
2018-07-07T11:50:17.457Z,0.90
2018-07-07T11:52:54.433Z,1.17
2018-07-07T11:55:24.329Z,1.40
2018-07-07T11:57:53.335Z,1.10
2018-07-07T12:00:22.515Z,1.80
2018-07-07T12:02:54.369Z,1.47
2018-07-07T12:05:23.757Z,1.10
2018-07-07T12:08:00.831Z,1.07
2018-07-07T12:10:23.282Z,1.20
2018-07-07T12:12:52.676Z,1.30
2018-07-07T12:15:22.597Z,1.40
2018-07-07T12:17:51.781Z,1.33
2018-07-07T12:21:59.723Z,1.13
2018-07-07T12:24:29.767Z,1.30
2018-07-07T12:26:59.176Z,1.10
2018-07-07T12:29:29.011Z,1.20
2018-07-07T12:31:57.875Z,1.10
2018-07-07T12:34:27.457Z,1.30
2018-07-07T12:36:56.413Z,0.87
2018-07-07T12:39:25.827Z,0.90
2018-07-07T12:41:54.854Z,1.30
2018-07-07T12:44:24.400Z,0.83
2018-07-07T12:46:54.365Z,1.10
2018-07-07T12:49:24.024Z,1.10
2018-07-07T12:51:53.041Z,1.40
2018-07-07T12:54:21.977Z,1.03
2018-07-07T12:56:51.153Z,0.83
2018-07-07T12:59:20.135Z,0.83
2018-07-07T13:01:49.187Z,1.20
2018-07-07T13:04:19.520Z,1.10
2018-07-07T13:06:48.816Z,1.17
2018-07-07T13:09:17.853Z,1.20
2018-07-07T13:11:48.179Z,1.20
2018-07-07T13:14:17.895Z,1.00
2018-07-07T13:16:47.878Z,0.90
2018-07-07T13:19:17.614Z,1.20
2018-07-07T13:21:47.531Z,1.27
2018-07-07T13:24:17.769Z,1.07
2018-07-07T13:26:47.695Z,1.30
2018-07-07T13:29:17.052Z,0.80
2018-07-07T13:31:47.013Z,1.40
2018-07-07T13:34:16.670Z,1.50
2018-07-07T13:36:46.945Z,0.97
2018-07-07T13:39:16.751Z,1.23
2018-07-07T13:41:46.522Z,1.20
2018-07-07T13:44:16.156Z,1.10
2018-07-07T13:46:46.448Z,1.23
2018-07-07T13:49:16.100Z,1.57
2018-07-07T13:51:45.644Z,1.10
2018-07-07T13:54:15.675Z,1.50
2018-07-07T13:56:45.303Z,1.57
2018-07-07T13:59:15.075Z,1.20
2018-07-07T14:01:44.936Z,1.30
2018-07-07T14:04:14.829Z,1.20
2018-07-07T14:06:45.469Z,1.23
2018-07-07T14:09:15.543Z,1.20
2018-07-07T14:11:45.744Z,1.20
2018-07-07T14:14:16.627Z,0.90
2018-07-07T14:16:46.414Z,1.10
2018-07-07T14:19:16.620Z,1.00
2018-07-07T14:21:46.775Z,1.07
2018-07-07T14:24:16.615Z,1.30
2018-07-07T14:26:47.498Z,1.10
2018-07-07T14:29:17.567Z,1.17
2018-07-07T14:31:48.517Z,1.10
2018-07-07T14:34:19.521Z,0.90
2018-07-07T14:36:49.682Z,1.10
2018-07-07T14:39:20.236Z,0.87
2018-07-07T14:41:57.611Z,1.00
2018-07-07T14:44:27.602Z,1.10
2018-07-07T14:46:58.282Z,1.00
2018-07-07T14:49:28.560Z,1.20
2018-07-07T14:51:58.541Z,1.47
2018-07-07T14:54:29.245Z,1.20
2018-07-07T14:56:59.856Z,1.20
2018-07-07T14:59:29.935Z,1.10
2018-07-07T15:02:06.922Z,1.30
2018-07-07T15:04:38.458Z,1.30
2018-07-07T15:07:09.336Z,1.00
2018-07-07T15:09:40.658Z,0.93
2018-07-07T15:12:11.399Z,1.13
2018-07-07T15:14:43.171Z,1.10
2018-07-07T15:17:13.845Z,1.13
2018-07-07T15:19:45.682Z,1.10
2018-07-07T15:22:20.534Z,1.40
2018-07-07T15:24:56.594Z,1.00
2018-07-07T15:27:27.636Z,1.10
2018-07-07T15:29:57.639Z,1.40
2018-07-07T15:35:20.322Z,1.50
2018-07-07T15:37:51.096Z,1.60
2018-07-07T15:40:21.320Z,1.17
2018-07-07T15:42:51.564Z,1.50
2018-07-07T15:45:25.470Z,1.37
2018-07-07T15:47:55.716Z,1.27
2018-07-07T15:50:26.934Z,1.03
2018-07-07T15:56:00.128Z,1.30
2018-07-07T15:58:30.650Z,0.97
2018-07-07T16:01:01.308Z,1.10
2018-07-07T16:03:32.253Z,1.40
2018-07-07T16:06:02.222Z,1.30
2018-07-07T16:08:31.823Z,1.33
2018-07-07T16:11:02.609Z,1.17
2018-07-07T16:13:33.163Z,1.03
2018-07-07T16:16:03.376Z,1.50
2018-07-07T16:18:33.360Z,1.77
2018-07-07T16:21:03.410Z,1.30
2018-07-07T16:23:33.397Z,1.43
2018-07-07T16:26:04.320Z,1.23
2018-07-07T16:28:34.346Z,1.67
2018-07-07T16:31:04.387Z,1.33
2018-07-07T16:33:34.448Z,1.43
2018-07-07T16:36:05.066Z,1.10
2018-07-07T16:38:35.329Z,1.30
2018-07-07T16:41:06.276Z,1.37
2018-07-07T16:43:37.820Z,1.30
2018-07-07T16:46:08.082Z,1.50
2018-07-07T16:48:38.310Z,1.50
2018-07-07T16:51:08.506Z,1.80
2018-07-07T16:53:39.988Z,1.80
2018-07-07T16:59:04.248Z,1.50
2018-07-07T17:01:35.890Z,1.43
2018-07-07T17:04:06.567Z,1.47
2018-07-07T17:06:37.979Z,1.70
2018-07-07T17:09:08.716Z,1.70
2018-07-07T17:11:39.676Z,1.60
2018-07-07T17:14:10.821Z,2.00
2018-07-07T17:19:35.001Z,2.13
2018-07-07T17:22:06.602Z,1.80
2018-07-07T17:24:37.145Z,1.60
2018-07-07T17:27:08.075Z,2.10
2018-07-07T17:29:38.586Z,1.90
2018-07-07T17:32:08.870Z,1.67
2018-07-07T17:34:38.966Z,1.80
2018-07-07T17:37:09.091Z,2.60
2018-07-07T17:39:39.303Z,1.93
2018-07-07T17:42:09.037Z,2.33
2018-07-07T17:44:38.652Z,2.23
2018-07-07T17:47:08.522Z,1.90
2018-07-07T17:49:40.160Z,2.10
2018-07-07T17:52:12.909Z,4.20
2018-07-07T17:54:47.484Z,2.27
2018-07-07T18:00:01.369Z,2.60
2018-07-07T18:02:38.059Z,2.20
2018-07-07T18:05:30.428Z,2.40
2018-07-07T18:08:13.213Z,2.13
2018-07-07T18:13:30.811Z,2.17
2018-07-07T18:16:08.427Z,2.53
2018-07-07T18:18:45.557Z,2.37
2018-07-07T18:21:19.276Z,2.00
2018-07-07T18:23:55.188Z,2.23
2018-07-07T18:26:37.074Z,2.60
2018-07-07T18:29:45.198Z,2.20
2018-07-07T18:32:21.195Z,2.20
2018-07-07T18:34:59.729Z,2.00
2018-07-07T18:52:58.299Z,2.40
2018-07-07T19:00:26.305Z,2.10
2018-07-07T19:07:54.927Z,2.70
2018-07-07T20:33:43.164Z,5.50
2018-07-07T20:48:48.062Z,3.70
2018-07-07T21:58:29.994Z,3.60
2018-07-07T22:28:42.170Z,4.60
2018-07-07T22:58:43.806Z,3.50
